Stations météo

Publicité
Lus-La-Croix-Haute, France (7587): Température de l'air & dewpoint: 06.12.2018 21:00:00 - 12.12.2018 21:00:00 (CET)Lus-La-Croix-Haute, France (7587): Vitesse du vent & gusts: 06.12.2018 21:00:00 - 12.12.2018 21:00:00 (CET)Lus-La-Croix-Haute, France (7587): Direction du vent: 06.12.2018 21:00:00 - 12.12.2018 21:00:00 (CET)Lus-La-Croix-Haute, France (7587): Quantités de précipitations: 06.12.2018 21:00:00 - 12.12.2018 21:00:00 (CET)
Date & Time tt [°C] td [°C] ff [km/h] ff [knt] fx [km/h] fx [knt] dd rr [mm]
12.12.2018 21:00:00 - - - - - - - -
12.12.2018 20:00:00 -1,3 -3,3 2 1 5 3 NNE 0,0
12.12.2018 19:00:00 -1,0 -3,4 0 0 8 4 N -
12.12.2018 18:00:00 -0,9 -3,6 0 0 5 3 N 0,0
12.12.2018 17:00:00 0,0 -3,9 4 2 15 8 N 0,0
12.12.2018 16:00:00 1,6 -3,1 5 3 13 7 WNW 0,0
12.12.2018 15:00:00 1,2 -4,1 2 1 8 4 WSW 0,0
12.12.2018 14:00:00 1,1 -4,6 2 1 13 7 WNW 0,2
12.12.2018 13:00:00 0,5 -3,8 4 2 15 8 NW -
12.12.2018 12:00:00 0,2 -4,4 4 2 9 5 SSW 0,0
12.12.2018 11:00:00 -1,3 -4,8 2 1 8 4 SSE 0,0
12.12.2018 10:00:00 -2,4 -4,7 4 2 8 4 SSE 0,0
12.12.2018 09:00:00 -5,4 -6,6 4 2 9 5 ESE 0,0
12.12.2018 08:00:00 -5,2 -6,9 4 2 9 5 ENE 0,0
12.12.2018 07:00:00 -5,0 -6,2 4 2 9 5 NE -
12.12.2018 06:00:00 -4,9 -6,1 5 3 9 5 ESE 0,0
12.12.2018 05:00:00 -4,0 -5,4 4 2 8 4 E 0,0
12.12.2018 04:00:00 -3,9 -5,4 2 1 8 4 NNE 0,0
12.12.2018 03:00:00 -3,7 -5,5 4 2 9 5 E 0,0
12.12.2018 02:00:00 -3,1 -5,4 4 2 18 10 ENE 0,0
12.12.2018 01:00:00 -2,2 -5,0 4 2 15 8 N -
12.12.2018 00:00:00 -2,4 -4,9 4 2 13 7 NNE 0,0
11.12.2018 23:00:00 -1,7 -4,7 4 2 13 7 NNE 0,0
11.12.2018 22:00:00 -1,2 -4,4 8 4 24 13 NNW 0,0
11.12.2018 21:00:00 -0,7 -3,7 11 6 22 12 NNW 0,0
11.12.2018 20:00:00 -0,1 -3,5 8 4 21 11 NNW 0,0
11.12.2018 19:00:00 0,4 -3,2 8 4 31 17 NNW -
11.12.2018 18:00:00 0,5 -3,2 11 6 28 15 NNW 0,0
11.12.2018 17:00:00 0,7 -3,4 5 3 37 20 N 0,0
11.12.2018 16:00:00 1,3 -3,0 15 8 34 18 NNW 0,0
11.12.2018 15:00:00 3,3 -2,7 11 6 31 17 NNW 0,6
11.12.2018 14:00:00 3,1 -2,2 9 5 31 17 N 0,8
11.12.2018 13:00:00 3,3 -1,8 13 7 37 20 NNW -
11.12.2018 12:00:00 1,1 -2,3 9 5 22 12 NW 0,2
11.12.2018 11:00:00 0,2 -1,9 11 6 29 16 NW 0,0
11.12.2018 10:00:00 0,2 -1,9 11 6 35 19 NW 0,0
11.12.2018 09:00:00 0,3 -2,4 11 6 44 24 NNW 0,0
11.12.2018 08:00:00 0,5 -2,4 18 10 63 34 N 0,0
11.12.2018 07:00:00 0,6 -2,5 11 6 63 34 NNW -
11.12.2018 06:00:00 0,8 -2,8 15 8 63 34 N 0,0
11.12.2018 05:00:00 0,8 -2,3 22 12 63 34 N 0,0
11.12.2018 04:00:00 1,0 -2,1 22 12 76 41 N 0,0
11.12.2018 03:00:00 1,1 -2,1 13 7 63 34 N 0,0
11.12.2018 02:00:00 1,1 -1,6 21 11 67 36 NNW 0,0
11.12.2018 01:00:00 1,1 -1,1 24 13 74 40 NNW -
11.12.2018 00:00:00 1,2 -1,0 29 16 68 37 NNW 0,0
10.12.2018 23:00:00 1,2 -1,0 28 15 65 35 NNW 0,0
10.12.2018 22:00:00 1,3 -1,3 28 15 76 41 NNW 0,0
10.12.2018 21:00:00 1,4 -0,7 34 18 63 34 NNW 0,0
10.12.2018 20:00:00 1,7 -1,0 28 15 81 44 NNW 0,0
10.12.2018 19:00:00 1,5 -0,9 28 15 67 36 NNW -
10.12.2018 18:00:00 1,5 -0,7 31 17 76 41 NNW 0,2
10.12.2018 17:00:00 1,7 -1,2 24 13 63 34 NNW 0,0
10.12.2018 16:00:00 2,1 -1,3 22 12 68 37 NNW 0,4
10.12.2018 15:00:00 2,1 -0,8 24 13 59 32 NNW 0,8
10.12.2018 14:00:00 2,1 -0,7 24 13 67 36 NNW 0,6
10.12.2018 13:00:00 2,0 -0,9 22 12 72 39 N -
10.12.2018 12:00:00 1,2 -0,1 18 10 54 29 NNW 1,0
10.12.2018 11:00:00 1,1 0,1 21 11 57 31 NNW 1,0
10.12.2018 10:00:00 0,9 0,0 16 9 50 27 NNW 0,6
10.12.2018 09:00:00 0,5 -0,1 9 5 52 28 NNW 0,4
10.12.2018 08:00:00 1,0 0,0 15 8 54 29 NNW 0,6
10.12.2018 07:00:00 1,1 -0,1 18 10 55 30 NNW -
10.12.2018 06:00:00 1,1 0,2 21 11 46 25 NNW 2,0
10.12.2018 05:00:00 1,5 0,8 16 9 52 28 NW 1,0
10.12.2018 04:00:00 1,5 0,9 18 10 39 21 NW 1,0
10.12.2018 03:00:00 1,4 0,7 16 9 48 26 NW 1,0
10.12.2018 02:00:00 2,1 1,5 15 8 48 26 NW 1,0
10.12.2018 01:00:00 2,1 1,4 15 8 41 22 NW -
10.12.2018 00:00:00 1,9 1,3 18 10 31 17 NW 2,0
09.12.2018 23:00:00 2,6 1,6 21 11 50 27 NNW 1,0
09.12.2018 22:00:00 2,6 1,6 16 9 46 25 NNW 1,0
09.12.2018 21:00:00 2,8 1,2 21 11 48 26 NNW 1,0
09.12.2018 20:00:00 2,1 1,1 21 11 55 30 NW 1,0
09.12.2018 19:00:00 1,6 0,7 18 10 41 22 NNW -
09.12.2018 18:00:00 1,9 0,9 9 5 35 19 NNW 1,0
09.12.2018 17:00:00 1,8 0,9 15 8 37 20 NW 2,0
09.12.2018 16:00:00 2,4 1,4 15 8 44 24 NNW 2,0
09.12.2018 15:00:00 3,1 1,3 16 9 46 25 NNW 0,8
09.12.2018 14:00:00 3,3 1,0 16 9 63 34 NNW 1,0
09.12.2018 13:00:00 4,5 0,8 21 11 55 30 N -
09.12.2018 12:00:00 5,6 0,6 24 13 76 41 NNW 0,2
09.12.2018 11:00:00 4,5 2,8 18 10 48 26 NW 1,0
09.12.2018 10:00:00 4,9 2,9 11 6 54 29 NNW 0,4
09.12.2018 09:00:00 5,1 3,1 18 10 48 26 NW 0,4
09.12.2018 08:00:00 7,6 0,3 24 13 78 42 NW 0,0
09.12.2018 07:00:00 7,4 2,1 16 9 61 33 NW -
09.12.2018 06:00:00 6,5 2,6 13 7 35 19 NW 0,0
09.12.2018 05:00:00 3,7 2,8 5 3 15 8 S 0,0
09.12.2018 04:00:00 2,9 1,9 4 2 9 5 SE 0,0
09.12.2018 03:00:00 3,8 3,2 4 2 9 5 S 0,0
09.12.2018 02:00:00 3,6 3,0 4 2 16 9 NW 0,0
09.12.2018 01:00:00 3,0 2,6 4 2 15 8 NE -
09.12.2018 00:00:00 3,0 2,4 4 2 8 4 N 0,0
08.12.2018 23:00:00 3,0 2,3 0 0 9 5 N 0,2
08.12.2018 22:00:00 3,3 2,1 5 3 26 14 SE 0,6
08.12.2018 21:00:00 3,6 1,3 13 7 29 16 NW 0,2
08.12.2018 20:00:00 3,8 0,1 13 7 29 16 NW 0,0
08.12.2018 19:00:00 3,2 0,3 18 10 37 20 NW -
08.12.2018 18:00:00 3,7 -0,5 5 3 29 16 N 0,0
08.12.2018 17:00:00 2,7 0,3 15 8 28 15 NW 0,0
08.12.2018 16:00:00 3,3 0,2 16 9 35 19 NW 0,0
08.12.2018 15:00:00 4,5 -0,7 9 5 29 16 N 0,0
08.12.2018 14:00:00 4,2 0,3 9 5 37 20 NNW 0,0
08.12.2018 13:00:00 2,6 0,0 21 11 41 22 NW -
08.12.2018 12:00:00 2,4 -0,2 11 6 35 19 NW 0,2
08.12.2018 11:00:00 2,6 -1,0 15 8 37 20 NW 0,2
08.12.2018 10:00:00 2,4 -2,5 15 8 44 24 NNW 0,2
08.12.2018 09:00:00 1,7 -3,2 18 10 44 24 NNW 0,0
08.12.2018 08:00:00 1,4 -3,3 16 9 52 28 NNW 0,0
08.12.2018 07:00:00 1,4 -3,5 22 12 59 32 N -
08.12.2018 06:00:00 1,4 -2,6 21 11 78 42 N 0,0
08.12.2018 05:00:00 1,5 -2,3 28 15 70 38 N 0,2
08.12.2018 04:00:00 1,9 -2,2 26 14 55 30 NNW 0,0
08.12.2018 03:00:00 1,7 -1,2 21 11 65 35 NNW 0,0
08.12.2018 02:00:00 1,6 -0,5 13 7 48 26 NNW 0,2
08.12.2018 01:00:00 1,9 -0,2 16 9 59 32 NNW -
08.12.2018 00:00:00 2,9 1,1 22 12 83 45 N 3,0
07.12.2018 23:00:00 5,1 4,1 11 6 35 19 NW 0,8
07.12.2018 22:00:00 5,9 2,7 13 7 39 21 NW 0,0
07.12.2018 21:00:00 5,9 4,2 5 3 13 7 NNE 0,2
07.12.2018 20:00:00 6,5 4,2 9 5 21 11 NNW 0,0
07.12.2018 19:00:00 7,0 4,8 9 5 24 13 NNW -
07.12.2018 18:00:00 6,5 3,6 4 2 11 6 ENE 0,0
07.12.2018 17:00:00 7,2 3,2 4 2 13 7 WNW 0,0
07.12.2018 16:00:00 11,4 3,9 9 5 21 11 S 0,0
07.12.2018 15:00:00 12,6 3,8 13 7 26 14 S 0,0
07.12.2018 14:00:00 13,0 4,2 11 6 28 15 SSW 0,0
07.12.2018 13:00:00 12,7 3,6 4 2 13 7 S -
07.12.2018 12:00:00 9,5 4,3 4 2 9 5 SSE 0,0
07.12.2018 11:00:00 5,6 4,1 2 1 8 4 S 0,0
07.12.2018 10:00:00 2,3 2,0 2 1 5 3 S 0,0
07.12.2018 09:00:00 1,6 1,3 0 0 8 4 N 0,0
07.12.2018 08:00:00 1,7 1,4 0 0 8 4 N 0,0
07.12.2018 07:00:00 1,6 1,2 0 0 8 4 N -
07.12.2018 06:00:00 2,1 1,5 2 1 8 4 SSE 0,0
07.12.2018 05:00:00 2,7 1,8 2 1 8 4 NNW 0,0
07.12.2018 04:00:00 3,3 2,3 4 2 11 6 ESE 0,2
07.12.2018 03:00:00 4,0 2,8 2 1 9 5 ESE 0,0
07.12.2018 02:00:00 4,7 4,0 4 2 9 5 SW 0,0
07.12.2018 01:00:00 4,9 3,2 4 2 28 15 SSE -
07.12.2018 00:00:00 5,6 4,4 11 6 22 12 NW 0,0
06.12.2018 23:00:00 6,1 4,4 4 2 16 9 NW 0,0
06.12.2018 22:00:00 6,1 5,1 9 5 29 16 NW 0,0
06.12.2018 21:00:00 5,8 4,9 15 8 29 16 NW 0,0

tt = Température de l'air
td = dewpoint
ff = Vitesse du vent
fx = gusts
dd = Direction du vent
rr = Quantités de précipitations

stations d'obs. à proximité